Time;durP1;ratioP1;P1;durP2;ratioP2;P2;SDS_P1;SDS_P2;PMS_P1;PMS_P2;Temp;Humidity;BMP_temperature;BMP_pressure;BME280_temperature;BME280_humidity;BME280_pressure;Samples;Min_cycle;Max_cycle;Signal;HPM_P1;HPM_P2
2022/11/05 00:17:46;;;;;;;6.83;5.20;;;9.60;99.90;;;;;;5018713;28;20878;-80
2022/11/05 00:20:30;;;;;;;7.07;4.50;;;9.60;99.90;;;;;;5019414;28;20458;-82
2022/11/05 00:26:15;;;;;;;5.37;4.43;;;9.70;99.90;;;;;;5019004;28;20382;-81
2022/11/05 00:28:59;;;;;;;4.67;4.23;;;9.80;99.90;;;;;;5019131;28;20366;-81
2022/11/05 00:31:43;;;;;;;3.83;2.90;;;9.70;99.90;;;;;;5019285;28;20466;-80
2022/11/05 00:34:28;;;;;;;4.33;3.77;;;9.50;99.90;;;;;;5004330;28;20394;-80
2022/11/05 00:37:12;;;;;;;13.50;5.60;;;9.60;99.90;;;;;;5019350;28;20419;-80
2022/11/05 00:39:56;;;;;;;4.87;4.30;;;9.50;99.90;;;;;;5018448;28;20753;-80
2022/11/05 00:45:36;;;;;;;3.53;3.13;;;9.40;99.90;;;;;;5018524;28;20890;-81
2022/11/05 00:51:16;;;;;;;8.77;5.30;;;9.30;99.90;;;;;;5038308;28;20370;-81
2022/11/05 00:54:00;;;;;;;5.23;4.80;;;9.30;99.90;;;;;;5038808;28;20426;-81
2022/11/05 00:56:45;;;;;;;6.90;5.47;;;9.20;99.90;;;;;;5023844;28;20416;-79
2022/11/05 00:59:29;;;;;;;8.70;5.63;;;8.80;99.90;;;;;;5038943;28;20403;-79
2022/11/05 01:02:13;;;;;;;6.50;5.20;;;8.50;99.90;;;;;;5038761;28;20369;-81
2022/11/05 01:04:57;;;;;;;5.73;4.93;;;8.50;99.90;;;;;;5038778;28;20394;-80
2022/11/05 01:07:41;;;;;;;5.07;4.60;;;8.40;99.90;;;;;;5039123;28;20389;-81
2022/11/05 01:10:26;;;;;;;6.57;4.07;;;8.50;99.90;;;;;;5038556;28;20357;-80
2022/11/05 01:13:11;;;;;;;7.37;4.57;;;8.50;99.90;;;;;;5038220;28;20430;-81
2022/11/05 01:15:56;;;;;;;5.80;5.30;;;8.70;99.90;;;;;;5023519;28;20360;-81
2022/11/05 01:18:40;;;;;;;4.83;4.40;;;8.60;99.90;;;;;;5038017;28;20878;-79
2022/11/05 01:21:24;;;;;;;6.20;4.83;;;8.50;99.90;;;;;;5038392;28;20715;-79
2022/11/05 01:24:09;;;;;;;9.83;5.13;;;8.60;99.90;;;;;;5037468;28;20428;-79
2022/11/05 01:26:54;;;;;;;8.10;7.30;;;8.60;99.90;;;;;;5022672;28;20410;-80
2022/11/05 01:29:38;;;;;;;6.93;4.70;;;8.60;99.90;;;;;;5037513;28;20397;-80
2022/11/05 01:32:22;;;;;;;4.97;4.57;;;8.50;99.90;;;;;;5037850;28;20389;-79
2022/11/05 01:35:09;;;;;;;7.27;6.67;;;8.50;99.90;;;;;;5037366;28;20450;-79
2022/11/05 01:37:53;;;;;;;5.53;5.07;;;8.40;99.90;;;;;;5037496;28;20783;-80
2022/11/05 01:40:41;;;;;;;5.90;4.73;;;8.20;99.90;;;;;;5037184;28;20884;-79
2022/11/05 01:43:25;;;;;;;4.47;4.07;;;8.20;99.90;;;;;;5037564;28;20501;-80
2022/11/05 01:46:10;;;;;;;6.77;5.10;;;8.10;99.90;;;;;;5037345;28;20365;-79
2022/11/05 01:48:59;;;;;;;5.10;4.57;;;8.20;99.90;;;;;;5037222;28;20437;-79
2022/11/05 01:51:45;;;;;;;7.40;5.83;;;8.10;99.90;;;;;;5036753;28;20481;-79
2022/11/05 01:54:31;;;;;;;4.73;4.33;;;8.00;99.90;;;;;;5037446;28;20736;-80
2022/11/05 01:57:15;;;;;;;5.50;5.00;;;8.00;99.90;;;;;;5037034;28;20434;-79
2022/11/05 02:00:01;;;;;;;5.53;5.03;;;7.90;99.90;;;;;;5037059;28;20369;-80
2022/11/05 02:02:45;;;;;;;4.80;4.40;;;7.80;99.90;;;;;;5040538;28;20464;-79
2022/11/05 02:05:30;;;;;;;5.13;4.30;;;7.90;99.90;;;;;;5046130;28;20390;-80
2022/11/05 02:08:26;;;;;;;8.17;4.57;;;8.00;99.90;;;;;;5037891;28;20799;-79
2022/11/05 02:11:13;;;;;;;5.50;4.87;;;8.00;99.90;;;;;;5022397;28;20358;-80
2022/11/05 02:13:58;;;;;;;5.97;5.37;;;7.80;99.90;;;;;;5037395;28;20397;-79
2022/11/05 02:17:01;;;;;;;7.37;5.90;;;7.70;99.90;;;;;;5022325;28;20418;-80
2022/11/05 02:20:09;;;;;;;5.07;4.60;;;7.70;99.90;;;;;;5037625;28;20410;-79
2022/11/05 02:23:13;;;;;;;6.70;6.10;;;7.70;99.90;;;;;;5022800;28;20454;-80
2022/11/05 02:26:25;;;;;;;9.33;5.30;;;7.90;99.90;;;;;;5023118;28;20377;-80
2022/11/05 02:29:42;;;;;;;5.93;4.90;;;7.90;99.90;;;;;;5026888;28;20393;-80
2022/11/05 02:32:38;;;;;;;5.37;4.67;;;7.90;99.90;;;;;;5027351;28;20406;-81
2022/11/05 02:35:53;;;;;;;5.80;5.30;;;7.90;99.90;;;;;;5036988;28;20910;-80
2022/11/05 02:39:01;;;;;;;10.33;5.53;;;8.10;99.90;;;;;;5037259;28;20414;-80
2022/11/05 02:42:02;;;;;;;5.10;3.80;;;8.00;99.90;;;;;;5036672;28;20365;-79
2022/11/05 02:45:09;;;;;;;14.00;4.47;;;7.80;99.90;;;;;;5036658;28;20418;-79
2022/11/05 02:48:06;;;;;;;5.87;4.40;;;7.90;99.90;;;;;;5036604;28;20382;-79
2022/11/05 02:51:01;;;;;;;11.50;4.47;;;8.00;99.90;;;;;;5036075;28;20434;-80
2022/11/05 02:54:12;;;;;;;7.60;4.73;;;8.20;99.90;;;;;;5036605;28;20473;-80
2022/11/05 02:56:59;;;;;;;7.63;3.60;;;8.40;99.90;;;;;;5036473;28;20917;-79
2022/11/05 02:59:44;;;;;;;3.33;3.03;;;8.50;99.90;;;;;;5036221;28;20353;-80
2022/11/05 03:02:29;;;;;;;4.27;3.97;;;8.70;99.90;;;;;;5036533;28;20393;-81
2022/11/05 03:05:13;;;;;;;11.27;3.30;;;8.80;99.90;;;;;;5040386;28;20399;-81
2022/11/05 03:08:13;;;;;;;4.00;3.60;;;8.70;99.90;;;;;;5011767;28;20369;-80
2022/11/05 03:11:04;;;;;;;4.80;4.00;;;8.70;99.90;;;;;;5040947;28;20427;-81
2022/11/05 03:14:19;;;;;;;5.23;3.53;;;8.60;99.90;;;;;;5041172;28;20399;-78
2022/11/05 03:17:22;;;;;;;6.47;4.97;;;8.30;99.90;;;;;;5030242;28;20370;-81
2022/11/05 03:20:16;;;;;;;5.70;3.70;;;8.20;99.90;;;;;;5040297;28;20392;-81
2022/11/05 03:23:24;;;;;;;4.30;3.90;;;8.10;99.90;;;;;;5025981;28;20464;-80
2022/11/05 03:26:18;;;;;;;5.17;4.60;;;8.00;99.90;;;;;;5040784;28;20534;-80
2022/11/05 03:29:07;;;;;;;5.00;3.73;;;8.00;99.90;;;;;;5040217;28;20384;-79
2022/11/05 03:31:56;;;;;;;5.00;4.00;;;8.10;99.90;;;;;;5040695;28;20405;-80
2022/11/05 03:34:46;;;;;;;5.10;4.60;;;8.10;99.90;;;;;;5040540;28;20772;-80
2022/11/05 03:37:36;;;;;;;8.47;4.50;;;8.10;99.90;;;;;;5040543;28;20510;-80
2022/11/05 03:40:22;;;;;;;5.40;3.70;;;8.10;99.90;;;;;;5040437;28;20401;-79
2022/11/05 03:43:08;;;;;;;4.33;3.60;;;8.10;99.90;;;;;;5041174;28;20412;-80
2022/11/05 03:45:57;;;;;;;5.10;3.80;;;8.20;99.90;;;;;;5055851;28;20427;-76
2022/11/05 03:48:47;;;;;;;4.50;4.10;;;8.20;99.90;;;;;;5056963;28;20440;-77
2022/11/05 03:51:49;;;;;;;9.60;5.00;;;8.30;99.90;;;;;;5055646;28;20395;-77
2022/11/05 03:54:34;;;;;;;5.10;4.63;;;8.30;99.90;;;;;;5042021;28;20402;-78
2022/11/05 03:57:24;;;;;;;4.70;4.30;;;8.50;99.90;;;;;;5038767;28;20489;-79
2022/11/05 04:00:10;;;;;;;11.40;4.37;;;8.40;99.90;;;;;;5038928;28;20418;-79
2022/11/05 04:02:54;;;;;;;4.40;4.00;;;8.30;99.90;;;;;;5039230;28;20534;-79
2022/11/05 04:05:38;;;;;;;7.37;4.77;;;8.30;99.90;;;;;;5038822;28;20364;-79
2022/11/05 04:14:16;;;;;;;5.60;3.40;;;8.10;99.90;;;;;;5038833;28;20382;-80
2022/11/05 04:17:08;;;;;;;6.70;4.17;;;8.10;99.90;;;;;;5038023;28;20365;-79
2022/11/05 04:25:57;;;;;;;4.93;4.47;;;8.20;99.90;;;;;;5038598;28;20420;-81
2022/11/05 04:31:37;;;;;;;3.90;3.60;;;7.90;99.90;;;;;;5038474;28;20390;-80
2022/11/05 04:34:21;;;;;;;5.50;4.67;;;7.80;99.90;;;;;;5038873;28;20369;-80
2022/11/05 04:37:06;;;;;;;3.87;3.50;;;7.80;99.90;;;;;;5038602;28;20429;-80
2022/11/05 04:39:50;;;;;;;4.60;4.20;;;7.80;99.90;;;;;;5037820;28;20484;-80
2022/11/05 04:42:34;;;;;;;6.07;4.27;;;7.80;99.90;;;;;;5023699;28;20386;-81
2022/11/05 04:45:18;;;;;;;3.90;3.67;;;7.70;99.90;;;;;;5038436;28;20369;-80
2022/11/05 04:48:03;;;;;;;3.50;3.20;;;7.60;99.90;;;;;;5004539;28;20935;-80
2022/11/05 04:50:47;;;;;;;3.83;3.53;;;7.60;99.90;;;;;;5018307;28;20367;-80
2022/11/05 04:53:32;;;;;;;4.70;4.30;;;7.80;99.90;;;;;;5018333;28;20744;-80
2022/11/05 04:56:20;;;;;;;4.47;4.07;;;7.80;99.90;;;;;;5026173;28;20411;-80
2022/11/05 04:59:04;;;;;;;7.83;4.40;;;7.90;99.90;;;;;;5036627;28;20454;-80
2022/11/05 05:01:52;;;;;;;4.30;3.87;;;8.00;99.90;;;;;;5047307;28;20422;-79
2022/11/05 05:04:36;;;;;;;5.67;3.93;;;8.10;99.90;;;;;;5058184;28;20470;-80
2022/11/05 05:07:20;;;;;;;10.50;4.00;;;8.20;99.90;;;;;;5058474;28;20495;-80
2022/11/05 05:10:07;;;;;;;8.07;4.33;;;8.20;99.90;;;;;;5058470;28;20415;-80
2022/11/05 05:12:51;;;;;;;9.90;4.77;;;8.10;99.90;;;;;;5059258;28;20421;-80
2022/11/05 05:15:36;;;;;;;5.70;5.07;;;8.10;99.90;;;;;;5058656;28;20914;-80
2022/11/05 05:18:20;;;;;;;5.80;4.83;;;8.10;99.90;;;;;;5066581;28;20377;-78
2022/11/05 05:24:13;;;;;;;8.37;4.57;;;8.20;99.90;;;;;;5073922;28;20456;-78
2022/11/05 05:26:57;;;;;;;7.67;5.30;;;8.30;99.90;;;;;;5059533;28;20380;-78
2022/11/05 05:29:41;;;;;;;14.10;8.80;;;8.50;99.90;;;;;;5073374;28;20845;-78
2022/11/05 05:32:26;;;;;;;19.30;9.90;;;8.60;99.90;;;;;;5071579;28;20786;-79
2022/11/05 05:35:10;;;;;;;15.00;9.97;;;8.80;99.90;;;;;;5073732;28;20413;-78
2022/11/05 05:37:55;;;;;;;19.47;10.87;;;8.80;99.90;;;;;;5072885;28;20395;-80
2022/11/05 05:40:40;;;;;;;22.47;12.50;;;8.80;99.90;;;;;;5061804;28;20386;-80
2022/11/05 05:43:25;;;;;;;14.00;10.03;;;8.90;99.90;;;;;;5043701;28;20949;-80
2022/11/05 05:46:12;;;;;;;10.37;7.50;;;9.00;99.90;;;;;;5057683;28;20391;-80
2022/11/05 05:48:56;;;;;;;11.07;9.43;;;9.00;99.90;;;;;;5047249;28;20449;-81
2022/11/05 05:51:41;;;;;;;19.80;10.83;;;9.00;99.90;;;;;;5042543;28;20403;-80
2022/11/05 05:54:25;;;;;;;21.80;10.90;;;9.10;99.90;;;;;;5062106;28;20417;-79
2022/11/05 05:57:09;;;;;;;13.80;10.93;;;9.10;99.90;;;;;;5070427;28;20980;-78
2022/11/05 05:59:53;;;;;;;17.43;9.73;;;9.10;99.90;;;;;;5071036;28;20390;-78
2022/11/05 06:02:37;;;;;;;20.13;11.23;;;9.10;99.90;;;;;;5072520;28;20406;-78
2022/11/05 06:05:21;;;;;;;22.90;12.10;;;9.10;99.90;;;;;;5063519;28;20382;-80
2022/11/05 06:08:06;;;;;;;16.37;9.37;;;9.10;99.90;;;;;;5057309;28;20468;-80
2022/11/05 06:10:50;;;;;;;18.27;9.77;;;9.10;99.90;;;;;;5057021;28;20720;-80
2022/11/05 06:13:35;;;;;;;21.17;12.80;;;9.20;99.90;;;;;;5055809;28;20401;-80
2022/11/05 06:16:20;;;;;;;18.13;11.50;;;9.10;99.90;;;;;;5055942;28;20433;-80
2022/11/05 06:19:05;;;;;;;25.03;12.00;;;9.10;99.90;;;;;;5056101;28;20391;-80
2022/11/05 06:21:49;;;;;;;13.93;9.33;;;9.00;99.90;;;;;;5056453;28;20405;-80
2022/11/05 06:24:33;;;;;;;14.63;10.13;;;9.00;99.90;;;;;;5056188;28;20453;-79
2022/11/05 06:27:17;;;;;;;15.13;10.30;;;9.00;99.90;;;;;;5056435;28;20401;-80
2022/11/05 06:30:03;;;;;;;13.90;8.67;;;9.00;99.90;;;;;;5056352;28;20460;-79
2022/11/05 06:32:47;;;;;;;16.70;10.03;;;8.80;99.90;;;;;;5055011;28;20368;-79
2022/11/05 06:35:32;;;;;;;12.97;7.90;;;8.60;99.90;;;;;;5056025;28;20448;-80
2022/11/05 06:38:16;;;;;;;13.60;8.97;;;8.60;99.90;;;;;;5054957;28;20517;-80
2022/11/05 06:41:01;;;;;;;11.33;7.43;;;8.60;99.90;;;;;;5055098;28;20467;-81
2022/11/05 06:43:45;;;;;;;15.00;9.50;;;8.60;99.90;;;;;;5055192;28;20455;-80
2022/11/05 06:46:29;;;;;;;12.83;7.27;;;8.50;99.90;;;;;;5056765;28;20384;-80
2022/11/05 06:49:14;;;;;;;14.83;7.83;;;8.40;99.90;;;;;;5056597;28;20503;-79
2022/11/05 06:51:59;;;;;;;12.30;7.70;;;8.40;99.90;;;;;;5055946;28;20364;-80
2022/11/05 06:54:45;;;;;;;11.97;8.60;;;8.40;99.90;;;;;;5055539;28;20368;-79
2022/11/05 06:57:29;;;;;;;21.83;8.23;;;8.40;99.90;;;;;;5056059;28;20498;-80
2022/11/05 07:00:14;;;;;;;15.70;7.23;;;8.50;99.90;;;;;;5044143;28;20879;-79
2022/11/05 07:03:05;;;;;;;15.30;6.60;;;8.40;99.90;;;;;;5035905;28;20519;-80
2022/11/05 07:05:50;;;;;;;9.93;6.17;;;8.20;99.90;;;;;;5036710;28;20358;-80
2022/11/05 07:08:36;;;;;;;14.33;8.57;;;8.30;99.90;;;;;;5037833;28;20412;-80
2022/11/05 07:11:20;;;;;;;10.63;6.70;;;8.40;99.90;;;;;;5037360;28;20470;-79
2022/11/05 07:14:05;;;;;;;15.97;7.77;;;8.40;99.90;;;;;;5036249;28;20390;-78
2022/11/05 07:16:49;;;;;;;12.43;9.10;;;8.40;99.90;;;;;;5035838;28;20373;-80
2022/11/05 07:19:33;;;;;;;12.93;8.83;;;8.30;99.90;;;;;;5021164;28;20395;-81
2022/11/05 07:22:17;;;;;;;12.37;9.10;;;8.20;99.90;;;;;;5035833;28;20398;-80
2022/11/05 07:25:02;;;;;;;22.13;9.90;;;8.20;99.90;;;;;;5036432;28;20407;-80
2022/11/05 07:27:46;;;;;;;14.83;10.37;;;8.20;99.90;;;;;;5021271;28;20463;-81
2022/11/05 07:30:31;;;;;;;14.27;9.07;;;8.30;99.90;;;;;;5036480;28;20390;-80
2022/11/05 07:33:15;;;;;;;10.80;7.77;;;8.40;99.90;;;;;;5021113;28;20379;-80
2022/11/05 07:35:59;;;;;;;18.40;9.27;;;8.40;99.90;;;;;;5020891;28;20415;-81
2022/11/05 07:38:43;;;;;;;19.37;11.40;;;8.40;99.90;;;;;;5036105;28;20391;-81
2022/11/05 07:41:28;;;;;;;19.37;11.30;;;8.40;99.90;;;;;;5036136;28;20727;-80
2022/11/05 07:44:13;;;;;;;21.83;11.73;;;8.40;99.90;;;;;;5036032;28;20481;-80
2022/11/05 07:46:57;;;;;;;17.70;11.13;;;8.50;99.90;;;;;;5036327;28;20528;-81
2022/11/05 07:49:41;;;;;;;17.63;11.60;;;8.60;99.90;;;;;;5037507;28;20446;-80
2022/11/05 07:52:26;;;;;;;18.73;11.27;;;8.70;99.90;;;;;;5024993;28;20766;-80
2022/11/05 07:55:12;;;;;;;17.50;11.77;;;8.90;99.90;;;;;;5042248;28;20365;-81
2022/11/05 07:57:56;;;;;;;16.20;11.83;;;8.80;99.90;;;;;;5042823;28;20442;-79
2022/11/05 08:00:40;;;;;;;14.83;10.10;;;8.70;99.90;;;;;;5028048;28;20891;-80
2022/11/05 08:03:24;;;;;;;17.93;10.90;;;8.70;99.90;;;;;;5043028;28;20445;-80
2022/11/05 08:06:08;;;;;;;17.90;12.57;;;8.80;99.90;;;;;;5043731;28;20406;-81
2022/11/05 08:08:53;;;;;;;16.37;10.90;;;8.90;99.90;;;;;;5041374;28;20362;-80
2022/11/05 08:11:37;;;;;;;17.40;12.03;;;8.90;99.90;;;;;;5041816;28;20450;-80
2022/11/05 08:14:21;;;;;;;16.53;11.57;;;9.10;99.90;;;;;;5042279;28;20768;-80
2022/11/05 08:17:05;;;;;;;17.77;13.00;;;9.10;99.90;;;;;;5041692;28;20438;-80
2022/11/05 08:19:49;;;;;;;18.10;13.00;;;9.20;99.90;;;;;;5041688;28;20541;-80
2022/11/05 08:22:34;;;;;;;22.00;12.50;;;9.40;99.90;;;;;;5041927;28;20387;-81
2022/11/05 08:25:18;;;;;;;19.00;11.50;;;9.50;99.90;;;;;;5021023;28;20427;-81
2022/11/05 08:28:06;;;;;;;17.70;10.60;;;9.70;99.90;;;;;;5038147;28;20425;-80
2022/11/05 08:30:52;;;;;;;22.83;13.80;;;9.80;99.90;;;;;;5042487;28;20494;-81
2022/11/05 08:33:37;;;;;;;23.93;14.20;;;9.80;99.90;;;;;;5043212;28;20403;-79
2022/11/05 08:36:21;;;;;;;19.90;12.07;;;9.80;99.90;;;;;;5043516;28;20441;-80
2022/11/05 08:39:05;;;;;;;18.30;12.40;;;9.80;99.90;;;;;;5027696;28;20526;-79
2022/11/05 08:41:49;;;;;;;20.60;14.10;;;9.90;99.90;;;;;;5041661;28;20426;-81
2022/11/05 08:44:34;;;;;;;18.30;12.60;;;9.90;99.90;;;;;;5042562;28;20474;-81
2022/11/05 08:47:18;;;;;;;16.97;11.83;;;10.00;99.90;;;;;;5042741;28;20370;-81
2022/11/05 08:50:02;;;;;;;19.73;11.97;;;10.00;99.90;;;;;;5041076;28;20928;-82
2022/11/05 08:52:46;;;;;;;19.87;14.57;;;10.00;99.90;;;;;;5041013;28;20450;-80
2022/11/05 08:55:31;;;;;;;43.97;26.00;;;9.90;99.90;;;;;;5041136;28;20383;-78
2022/11/05 08:58:16;;;;;;;34.77;21.13;;;10.10;99.90;;;;;;5040820;28;20493;-78
2022/11/05 09:01:04;;;;;;;17.53;12.13;;;10.10;99.90;;;;;;5040595;28;20476;-80
2022/11/05 09:03:50;;;;;;;15.30;10.97;;;10.10;99.90;;;;;;5040596;28;20454;-81
2022/11/05 09:06:35;;;;;;;17.10;11.60;;;10.20;99.90;;;;;;5024192;28;20469;-81
2022/11/05 09:09:19;;;;;;;22.30;11.27;;;10.00;99.90;;;;;;5040185;28;20437;-81
2022/11/05 09:12:03;;;;;;;19.33;12.17;;;9.80;99.90;;;;;;5040890;28;20430;-80
2022/11/05 09:14:48;;;;;;;21.80;11.43;;;9.70;99.90;;;;;;5023566;28;20458;-81
2022/11/05 09:17:32;;;;;;;15.57;11.50;;;9.70;99.90;;;;;;5040742;28;20387;-81
2022/11/05 09:20:16;;;;;;;18.83;11.70;;;9.70;99.90;;;;;;5040563;28;20482;-81
2022/11/05 09:23:01;;;;;;;17.37;12.33;;;9.70;99.90;;;;;;5023667;28;20434;-80
2022/11/05 09:25:46;;;;;;;19.67;12.23;;;9.80;99.90;;;;;;5023932;28;20446;-80
2022/11/05 09:28:31;;;;;;;19.00;11.40;;;9.80;99.90;;;;;;5025744;28;20860;-82
2022/11/05 09:31:15;;;;;;;21.63;10.37;;;9.90;99.90;;;;;;5040552;28;20418;-82
2022/11/05 09:33:59;;;;;;;16.47;12.10;;;10.00;99.90;;;;;;5040803;28;20414;-80
2022/11/05 09:36:43;;;;;;;15.33;13.00;;;10.10;99.90;;;;;;5026155;28;20484;-82
2022/11/05 09:39:28;;;;;;;16.77;11.03;;;10.10;99.90;;;;;;5025721;28;20498;-81
2022/11/05 09:42:16;;;;;;;14.00;10.97;;;10.30;99.90;;;;;;5026115;28;20403;-82
2022/11/05 09:45:03;;;;;;;19.77;12.00;;;10.80;99.90;;;;;;5040413;28;20395;-80
2022/11/05 09:47:54;;;;;;;25.00;12.50;;;11.30;99.90;;;;;;5038809;28;20455;-80
2022/11/05 09:50:42;;;;;;;13.33;10.07;;;11.30;99.90;;;;;;5011040;28;20391;-82
2022/11/05 09:53:27;;;;;;;11.97;8.63;;;11.00;99.90;;;;;;5024673;28;20406;-81
2022/11/05 09:56:20;;;;;;;11.97;9.67;;;10.90;99.90;;;;;;5026775;28;20383;-82
2022/11/05 09:59:15;;;;;;;16.83;10.40;;;11.00;99.90;;;;;;5040091;28;20402;-82
2022/11/05 10:02:10;;;;;;;23.27;12.90;;;10.90;99.90;;;;;;5040772;28;20497;-81
2022/11/05 10:04:59;;;;;;;20.77;15.00;;;10.90;99.90;;;;;;5026039;28;20512;-80
2022/11/05 10:07:48;;;;;;;19.83;11.00;;;10.70;99.90;;;;;;5040390;28;20395;-82
2022/11/05 10:10:43;;;;;;;18.43;10.93;;;10.80;99.90;;;;;;5041245;28;20418;-79
2022/11/05 10:13:39;;;;;;;16.13;12.23;;;11.00;99.90;;;;;;5021076;28;20403;-81
2022/11/05 10:16:29;;;;;;;15.07;11.10;;;11.10;99.90;;;;;;5022143;28;20742;-81
2022/11/05 10:19:23;;;;;;;21.80;10.10;;;11.20;99.90;;;;;;5023127;28;20387;-80
2022/11/05 10:22:12;;;;;;;16.23;12.07;;;11.30;99.90;;;;;;5037172;28;20404;-81
2022/11/05 10:24:56;;;;;;;14.00;10.60;;;11.50;99.90;;;;;;5036216;28;20989;-82
2022/11/05 10:27:43;;;;;;;18.33;9.80;;;11.40;99.90;;;;;;5021893;28;20828;-81
2022/11/05 10:30:27;;;;;;;16.33;10.73;;;11.40;99.90;;;;;;5036689;28;20407;-83
2022/11/05 10:33:18;;;;;;;13.47;10.07;;;11.20;99.90;;;;;;5035931;28;20403;-81
2022/11/05 10:36:06;;;;;;;12.70;9.57;;;11.30;99.90;;;;;;5036224;28;20394;-82
2022/11/05 10:38:53;;;;;;;13.40;9.73;;;11.40;99.90;;;;;;5037269;28;20443;-80
2022/11/05 10:41:54;;;;;;;19.53;10.47;;;11.30;99.90;;;;;;5022164;28;20453;-81
2022/11/05 10:45:12;;;;;;;15.20;9.60;;;11.40;99.90;;;;;;5036327;28;20485;-82
2022/11/05 10:48:32;;;;;;;18.17;10.40;;;11.60;99.90;;;;;;5037105;28;20398;-81
2022/11/05 10:51:18;;;;;;;17.40;10.67;;;11.80;99.90;;;;;;5036950;28;20399;-82
2022/11/05 10:54:12;;;;;;;13.93;9.33;;;12.00;99.90;;;;;;5037262;28;20540;-80
2022/11/05 10:56:57;;;;;;;14.73;9.27;;;12.00;99.90;;;;;;5037351;28;20488;-81
2022/11/05 10:59:41;;;;;;;19.23;10.13;;;12.20;99.90;;;;;;5021664;28;20394;-80
2022/11/05 11:02:27;;;;;;;20.03;10.20;;;12.40;99.90;;;;;;5008492;28;20407;-82
2022/11/05 11:05:20;;;;;;;15.13;11.10;;;12.50;99.90;;;;;;5021303;28;20387;-81
2022/11/05 11:08:22;;;;;;;17.20;10.07;;;12.60;99.90;;;;;;5035562;28;20387;-81
2022/11/05 11:11:10;;;;;;;13.00;10.33;;;12.50;99.90;;;;;;5036786;28;20426;-81
2022/11/05 11:14:04;;;;;;;12.63;11.17;;;12.40;99.90;;;;;;5036945;28;20491;-82
2022/11/05 11:16:50;;;;;;;13.87;10.93;;;12.90;99.90;;;;;;5036748;28;20399;-80
2022/11/05 11:19:35;;;;;;;18.50;11.80;;;13.30;99.90;;;;;;5037664;28;20396;-82
2022/11/05 11:22:20;;;;;;;12.73;9.20;;;14.00;99.90;;;;;;5039252;28;20870;-80
2022/11/05 11:25:23;;;;;;;17.30;10.97;;;14.20;99.90;;;;;;5040020;28;20448;-80
2022/11/05 11:28:18;;;;;;;17.20;9.93;;;14.30;99.90;;;;;;5028848;28;20379;-81
2022/11/05 11:31:10;;;;;;;19.40;10.60;;;14.60;99.90;;;;;;5027578;28;20386;-79
2022/11/05 11:34:01;;;;;;;11.33;10.13;;;14.80;99.90;;;;;;5043306;28;20722;-81
2022/11/05 11:36:48;;;;;;;10.60;9.23;;;16.30;99.90;;;;;;5041797;28;20437;-81
2022/11/05 11:39:33;;;;;;;17.23;9.60;;;16.40;99.90;;;;;;5042638;28;20406;-80
2022/11/05 11:42:32;;;;;;;9.23;8.10;;;15.60;99.90;;;;;;5041219;28;20397;-80
2022/11/05 11:45:37;;;;;;;14.07;10.33;;;15.50;99.90;;;;;;5042326;28;20394;-81
2022/11/05 11:48:26;;;;;;;21.90;8.77;;;14.80;99.90;;;;;;5027567;28;20544;-80
2022/11/05 11:51:39;;;;;;;11.43;7.80;;;16.20;99.90;;;;;;5041894;28;20458;-80
2022/11/05 11:54:23;;;;;;;11.40;8.70;;;15.90;99.90;;;;;;5042181;28;20902;-80
2022/11/05 11:57:26;;;;;;;9.40;7.60;;;17.20;99.90;;;;;;5041816;28;20438;-80
2022/11/05 12:00:11;;;;;;;10.30;7.90;;;17.50;99.90;;;;;;5042273;28;20390;-79
2022/11/05 12:03:23;;;;;;;10.30;8.60;;;16.90;99.90;;;;;;5042283;28;20457;-80
2022/11/05 12:06:34;;;;;;;18.47;8.37;;;16.50;99.90;;;;;;5042368;28;20391;-80
2022/11/05 12:09:33;;;;;;;9.53;7.33;;;16.30;99.90;;;;;;5026502;28;20403;-81
2022/11/05 12:12:30;;;;;;;7.63;6.83;;;15.90;99.90;;;;;;5042489;28;20474;-80
2022/11/05 12:15:33;;;;;;;9.63;7.40;;;15.50;99.90;;;;;;5041727;28;20483;-81
2022/11/05 12:18:49;;;;;;;8.13;6.27;;;15.40;99.90;;;;;;5027199;28;20859;-79
2022/11/05 12:21:51;;;;;;;11.70;6.23;;;15.30;99.90;;;;;;5041986;28;20395;-80
2022/11/05 12:24:54;;;;;;;12.10;6.43;;;14.40;99.90;;;;;;5040892;28;20453;-80
2022/11/05 12:27:55;;;;;;;5.97;5.43;;;13.90;99.90;;;;;;5041868;28;20398;-80
2022/11/05 12:31:17;;;;;;;10.80;6.50;;;14.30;99.90;;;;;;5041800;28;20403;-80
2022/11/05 12:34:22;;;;;;;10.20;5.60;;;14.60;99.90;;;;;;5026408;28;20387;-81
2022/11/05 12:37:29;;;;;;;5.60;5.10;;;14.50;99.90;;;;;;5024612;28;20763;-81
2022/11/05 12:40:32;;;;;;;8.27;5.90;;;14.30;99.90;;;;;;5039988;28;20433;-81
2022/11/05 12:43:38;;;;;;;10.80;6.00;;;14.70;99.90;;;;;;5033323;28;20490;-82
2022/11/05 12:46:45;;;;;;;5.70;5.17;;;14.40;99.90;;;;;;5045243;28;20410;-79
2022/11/05 12:50:02;;;;;;;6.37;5.77;;;14.40;99.90;;;;;;5030335;28;20469;-81
2022/11/05 12:53:22;;;;;;;6.90;5.87;;;14.20;99.90;;;;;;5031294;28;20394;-81
2022/11/05 12:56:20;;;;;;;9.63;7.50;;;14.20;99.90;;;;;;4998161;28;20440;-80
2022/11/05 12:59:22;;;;;;;7.87;5.73;;;14.10;99.90;;;;;;4983738;28;20409;-79
2022/11/05 13:02:42;;;;;;;6.90;6.20;;;13.90;99.90;;;;;;4983924;28;20408;-79
2022/11/05 13:05:36;;;;;;;7.27;5.27;;;13.90;99.90;;;;;;4998204;28;20537;-80
2022/11/05 13:08:38;;;;;;;5.20;4.57;;;13.80;99.90;;;;;;4999569;28;20460;-80
2022/11/05 13:11:34;;;;;;;6.63;4.70;;;13.60;99.90;;;;;;4986511;28;20441;-80
2022/11/05 13:14:28;;;;;;;7.07;4.10;;;13.60;99.90;;;;;;4998176;28;20385;-79
2022/11/05 13:17:18;;;;;;;5.57;3.63;;;13.50;99.90;;;;;;4998349;28;20448;-80
2022/11/05 13:20:12;;;;;;;8.07;4.60;;;13.50;99.90;;;;;;4998808;28;20890;-80
2022/11/05 13:23:10;;;;;;;3.83;3.53;;;13.60;99.90;;;;;;4984860;28;20397;-80
2022/11/05 13:26:01;;;;;;;9.73;4.17;;;13.60;99.90;;;;;;4988859;28;20397;-80
2022/11/05 13:28:56;;;;;;;4.53;3.80;;;14.20;99.90;;;;;;5037630;28;20502;-80
2022/11/05 13:31:47;;;;;;;4.57;3.30;;;15.10;99.90;;;;;;5036917;28;20395;-81
2022/11/05 13:34:32;;;;;;;7.13;3.90;;;16.00;99.90;;;;;;5021488;28;20395;-80
2022/11/05 13:40:42;;;;;;;5.77;3.40;;;16.90;99.90;;;;;;5037575;28;20438;-82
2022/11/05 13:43:52;;;;;;;5.00;3.50;;;17.70;99.90;;;;;;5038171;28;20517;-81
2022/11/05 13:47:15;;;;;;;4.10;3.67;;;18.40;99.90;;;;;;5038646;28;20843;-82
2022/11/05 13:50:24;;;;;;;5.57;3.60;;;18.80;99.90;;;;;;5028264;28;20454;-82
2022/11/05 13:53:48;;;;;;;4.47;3.70;;;18.70;99.90;;;;;;5023740;28;20469;-82
2022/11/05 13:57:06;;;;;;;2.67;2.47;;;17.80;99.90;;;;;;5037479;28;20466;-81
2022/11/05 14:00:05;;;;;;;3.43;2.60;;;18.70;99.90;;;;;;5038202;28;20441;-81
2022/11/05 14:02:56;;;;;;;3.83;3.30;;;18.20;99.90;;;;;;5037817;28;20470;-82
2022/11/05 14:05:42;;;;;;;4.70;2.80;;;17.50;99.90;;;;;;5037183;28;20455;-81
2022/11/05 14:08:28;;;;;;;5.97;3.50;;;17.10;99.90;;;;;;5037853;28;20399;-81
2022/11/05 14:11:21;;;;;;;4.90;3.40;;;16.40;99.90;;;;;;5037146;28;20836;-80
2022/11/05 14:14:08;;;;;;;6.90;3.70;;;15.90;99.90;;;;;;5022217;28;20398;-81
2022/11/05 14:17:14;;;;;;;4.60;3.10;;;15.50;99.90;;;;;;5021966;28;20446;-82
2022/11/05 14:20:09;;;;;;;4.70;3.20;;;15.20;99.90;;;;;;5022441;28;20477;-81
2022/11/05 14:23:33;;;;;;;7.67;4.40;;;14.80;99.90;;;;;;5036764;28;20823;-81
2022/11/05 14:26:21;;;;;;;3.60;3.03;;;14.70;99.90;;;;;;5021303;28;20399;-80
2022/11/05 14:29:21;;;;;;;5.00;3.30;;;14.40;99.90;;;;;;5021144;28;20422;-82
2022/11/05 14:32:41;;;;;;;8.10;3.70;;;14.10;99.90;;;;;;5020891;28;20398;-79
2022/11/05 14:35:35;;;;;;;3.50;3.20;;;13.90;99.90;;;;;;4977418;28;20420;-79
2022/11/05 14:38:23;;;;;;;3.47;3.27;;;13.70;99.90;;;;;;4976019;28;20410;-80
2022/11/05 14:41:08;;;;;;;5.53;3.43;;;13.60;99.90;;;;;;4962476;28;20409;-81
2022/11/05 14:44:05;;;;;;;5.00;3.57;;;13.40;99.90;;;;;;4974720;28;20596;-81
2022/11/05 14:46:53;;;;;;;4.10;3.70;;;13.30;99.90;;;;;;4961673;28;20389;-81
2022/11/05 14:49:50;;;;;;;7.33;4.07;;;13.30;99.90;;;;;;4961305;28;21085;-81
2022/11/05 14:52:35;;;;;;;7.50;3.73;;;13.20;99.90;;;;;;4975201;28;20413;-81
2022/11/05 14:55:36;;;;;;;3.70;3.40;;;13.10;99.90;;;;;;4960865;28;20450;-81
2022/11/05 14:58:31;;;;;;;5.33;4.37;;;13.00;99.90;;;;;;4960993;28;20453;-79
2022/11/05 15:01:49;;;;;;;11.03;3.50;;;13.00;99.90;;;;;;4960848;28;20490;-81
2022/11/05 15:04:35;;;;;;;3.77;3.40;;;13.00;99.90;;;;;;4963934;28;20460;-81
2022/11/05 15:07:33;;;;;;;8.10;3.83;;;13.00;99.90;;;;;;4966676;28;20395;-81
2022/11/05 15:10:18;;;;;;;4.97;3.60;;;12.80;99.90;;;;;;4994089;28;20396;-81
2022/11/05 15:13:05;;;;;;;7.67;4.93;;;12.80;99.90;;;;;;4981155;28;20404;-82
2022/11/05 15:15:51;;;;;;;5.93;4.60;;;12.90;99.90;;;;;;4995719;28;20895;-82
2022/11/05 15:18:44;;;;;;;6.63;4.70;;;12.80;99.90;;;;;;4994135;28;20454;-82
2022/11/05 15:21:34;;;;;;;4.80;4.17;;;12.80;99.90;;;;;;5036378;28;20413;-82
2022/11/05 15:24:20;;;;;;;8.30;4.10;;;12.80;99.90;;;;;;5035213;28;20446;-81
2022/11/05 15:27:30;;;;;;;5.63;5.03;;;12.70;99.90;;;;;;5034670;28;20735;-81
2022/11/05 15:30:17;;;;;;;4.80;4.37;;;12.60;99.90;;;;;;5020892;28;20387;-80
2022/11/05 15:33:18;;;;;;;4.60;4.10;;;12.50;99.90;;;;;;5020834;28;20483;-80